sensor_id;sensor_type;location;lat;lon;timestamp;P1;durP1;ratioP1;P2;durP2;ratioP2
60018;SDS011;45870;42.528;26.740;2023-04-08T00:01:23;28.42;;;16.70;;
60018;SDS011;45870;42.528;26.740;2023-04-08T00:03:48;24.13;;;16.73;;
60018;SDS011;45870;42.528;26.740;2023-04-08T00:06:14;24.88;;;16.65;;
60018;SDS011;45870;42.528;26.740;2023-04-08T00:08:40;27.13;;;17.58;;
60018;SDS011;45870;42.528;26.740;2023-04-08T00:11:06;28.15;;;18.00;;
60018;SDS011;45870;42.528;26.740;2023-04-08T00:13:31;29.40;;;18.13;;
60018;SDS011;45870;42.528;26.740;2023-04-08T00:15:57;28.38;;;17.92;;
60018;SDS011;45870;42.528;26.740;2023-04-08T00:18:23;27.67;;;16.98;;
60018;SDS011;45870;42.528;26.740;2023-04-08T00:20:48;28.02;;;17.92;;
60018;SDS011;45870;42.528;26.740;2023-04-08T00:23:14;23.42;;;16.00;;
60018;SDS011;45870;42.528;26.740;2023-04-08T00:25:40;24.15;;;16.17;;
60018;SDS011;45870;42.528;26.740;2023-04-08T00:28:06;27.85;;;17.00;;
60018;SDS011;45870;42.528;26.740;2023-04-08T00:30:31;24.60;;;16.95;;
60018;SDS011;45870;42.528;26.740;2023-04-08T00:32:57;24.15;;;16.23;;
60018;SDS011;45870;42.528;26.740;2023-04-08T00:35:22;24.75;;;16.75;;
60018;SDS011;45870;42.528;26.740;2023-04-08T00:37:48;27.83;;;16.77;;
60018;SDS011;45870;42.528;26.740;2023-04-08T00:40:14;24.60;;;17.08;;
60018;SDS011;45870;42.528;26.740;2023-04-08T00:42:40;25.50;;;16.77;;
60018;SDS011;45870;42.528;26.740;2023-04-08T00:45:06;24.65;;;16.15;;
60018;SDS011;45870;42.528;26.740;2023-04-08T00:47:32;24.15;;;16.50;;
60018;SDS011;45870;42.528;26.740;2023-04-08T00:50:00;25.77;;;16.05;;
60018;SDS011;45870;42.528;26.740;2023-04-08T00:52:26;26.23;;;16.73;;
60018;SDS011;45870;42.528;26.740;2023-04-08T00:54:52;27.38;;;17.08;;
60018;SDS011;45870;42.528;26.740;2023-04-08T00:57:17;25.83;;;17.40;;
60018;SDS011;45870;42.528;26.740;2023-04-08T00:59:43;28.02;;;16.30;;
60018;SDS011;45870;42.528;26.740;2023-04-08T01:02:11;23.77;;;15.98;;
60018;SDS011;45870;42.528;26.740;2023-04-08T01:07:20;26.77;;;17.65;;
60018;SDS011;45870;42.528;26.740;2023-04-08T01:09:53;27.42;;;17.48;;
60018;SDS011;45870;42.528;26.740;2023-04-08T01:12:24;25.30;;;18.38;;
60018;SDS011;45870;42.528;26.740;2023-04-08T01:17:27;33.40;;;17.65;;
60018;SDS011;45870;42.528;26.740;2023-04-08T01:19:55;25.80;;;17.50;;
60018;SDS011;45870;42.528;26.740;2023-04-08T01:22:29;27.23;;;17.55;;
60018;SDS011;45870;42.528;26.740;2023-04-08T01:25:04;28.52;;;18.25;;
60018;SDS011;45870;42.528;26.740;2023-04-08T01:27:33;28.65;;;17.70;;
60018;SDS011;45870;42.528;26.740;2023-04-08T01:30:00;27.40;;;17.88;;
60018;SDS011;45870;42.528;26.740;2023-04-08T01:32:29;27.85;;;17.42;;
60018;SDS011;45870;42.528;26.740;2023-04-08T01:34:56;28.67;;;18.30;;
60018;SDS011;45870;42.528;26.740;2023-04-08T01:37:23;27.98;;;18.13;;
60018;SDS011;45870;42.528;26.740;2023-04-08T01:39:50;32.53;;;18.65;;
60018;SDS011;45870;42.528;26.740;2023-04-08T01:42:16;30.13;;;18.60;;
60018;SDS011;45870;42.528;26.740;2023-04-08T01:44:42;31.77;;;19.58;;
60018;SDS011;45870;42.528;26.740;2023-04-08T01:47:09;27.23;;;17.38;;
60018;SDS011;45870;42.528;26.740;2023-04-08T01:49:37;29.77;;;17.92;;
60018;SDS011;45870;42.528;26.740;2023-04-08T01:52:04;24.70;;;17.40;;
60018;SDS011;45870;42.528;26.740;2023-04-08T01:54:32;27.20;;;17.60;;
60018;SDS011;45870;42.528;26.740;2023-04-08T01:56:59;29.27;;;18.75;;
60018;SDS011;45870;42.528;26.740;2023-04-08T01:59:30;30.13;;;17.77;;
60018;SDS011;45870;42.528;26.740;2023-04-08T02:01:59;27.67;;;17.80;;
60018;SDS011;45870;42.528;26.740;2023-04-08T02:04:27;29.90;;;19.42;;
60018;SDS011;45870;42.528;26.740;2023-04-08T02:06:54;29.00;;;17.73;;
60018;SDS011;45870;42.528;26.740;2023-04-08T02:09:20;26.33;;;17.52;;
60018;SDS011;45870;42.528;26.740;2023-04-08T02:11:46;24.05;;;16.67;;
60018;SDS011;45870;42.528;26.740;2023-04-08T02:14:12;34.83;;;18.38;;
60018;SDS011;45870;42.528;26.740;2023-04-08T02:16:48;32.95;;;18.08;;
60018;SDS011;45870;42.528;26.740;2023-04-08T02:19:23;25.80;;;17.15;;
60018;SDS011;45870;42.528;26.740;2023-04-08T02:21:58;23.05;;;16.70;;
60018;SDS011;45870;42.528;26.740;2023-04-08T02:24:30;26.45;;;17.05;;
60018;SDS011;45870;42.528;26.740;2023-04-08T02:26:57;26.00;;;16.35;;
60018;SDS011;45870;42.528;26.740;2023-04-08T02:29:25;23.85;;;15.35;;
60018;SDS011;45870;42.528;26.740;2023-04-08T02:31:54;27.65;;;16.60;;
60018;SDS011;45870;42.528;26.740;2023-04-08T02:34:20;27.27;;;17.95;;
60018;SDS011;45870;42.528;26.740;2023-04-08T02:36:47;26.42;;;17.02;;
60018;SDS011;45870;42.528;26.740;2023-04-08T02:39:15;30.33;;;17.63;;
60018;SDS011;45870;42.528;26.740;2023-04-08T02:41:41;29.15;;;17.80;;
60018;SDS011;45870;42.528;26.740;2023-04-08T02:44:07;24.67;;;16.27;;
60018;SDS011;45870;42.528;26.740;2023-04-08T02:46:33;23.33;;;15.50;;
60018;SDS011;45870;42.528;26.740;2023-04-08T02:48:59;25.17;;;15.82;;
60018;SDS011;45870;42.528;26.740;2023-04-08T02:51:25;24.27;;;16.58;;
60018;SDS011;45870;42.528;26.740;2023-04-08T02:53:52;27.02;;;16.95;;
60018;SDS011;45870;42.528;26.740;2023-04-08T02:56:18;29.98;;;17.83;;
60018;SDS011;45870;42.528;26.740;2023-04-08T02:58:43;29.48;;;17.52;;
60018;SDS011;45870;42.528;26.740;2023-04-08T03:01:09;22.73;;;15.70;;
60018;SDS011;45870;42.528;26.740;2023-04-08T03:03:35;25.60;;;16.58;;
60018;SDS011;45870;42.528;26.740;2023-04-08T03:06:02;28.10;;;18.63;;
60018;SDS011;45870;42.528;26.740;2023-04-08T03:08:27;24.02;;;16.08;;
60018;SDS011;45870;42.528;26.740;2023-04-08T03:10:53;26.95;;;16.60;;
60018;SDS011;45870;42.528;26.740;2023-04-08T03:13:19;31.33;;;17.88;;
60018;SDS011;45870;42.528;26.740;2023-04-08T03:15:44;31.73;;;18.40;;
60018;SDS011;45870;42.528;26.740;2023-04-08T03:18:10;28.73;;;18.60;;
60018;SDS011;45870;42.528;26.740;2023-04-08T03:20:36;26.02;;;17.33;;
60018;SDS011;45870;42.528;26.740;2023-04-08T03:23:01;26.38;;;17.45;;
60018;SDS011;45870;42.528;26.740;2023-04-08T03:25:27;28.50;;;17.40;;
60018;SDS011;45870;42.528;26.740;2023-04-08T03:27:53;25.42;;;16.75;;
60018;SDS011;45870;42.528;26.740;2023-04-08T03:30:19;27.27;;;17.50;;
60018;SDS011;45870;42.528;26.740;2023-04-08T03:32:45;26.95;;;17.27;;
60018;SDS011;45870;42.528;26.740;2023-04-08T03:35:11;28.20;;;17.88;;
60018;SDS011;45870;42.528;26.740;2023-04-08T03:37:37;24.85;;;16.38;;
60018;SDS011;45870;42.528;26.740;2023-04-08T03:40:02;26.85;;;16.27;;
60018;SDS011;45870;42.528;26.740;2023-04-08T03:42:28;24.02;;;16.40;;
60018;SDS011;45870;42.528;26.740;2023-04-08T03:44:54;23.98;;;16.05;;
60018;SDS011;45870;42.528;26.740;2023-04-08T03:47:20;24.25;;;15.63;;
60018;SDS011;45870;42.528;26.740;2023-04-08T03:49:45;24.38;;;16.02;;
60018;SDS011;45870;42.528;26.740;2023-04-08T03:52:11;30.65;;;19.73;;
60018;SDS011;45870;42.528;26.740;2023-04-08T03:54:36;36.10;;;20.38;;
60018;SDS011;45870;42.528;26.740;2023-04-08T03:57:02;33.13;;;20.73;;
60018;SDS011;45870;42.528;26.740;2023-04-08T03:59:28;43.10;;;24.40;;
60018;SDS011;45870;42.528;26.740;2023-04-08T04:01:53;34.72;;;18.95;;
60018;SDS011;45870;42.528;26.740;2023-04-08T04:04:19;24.70;;;16.52;;
60018;SDS011;45870;42.528;26.740;2023-04-08T04:06:45;22.80;;;14.88;;
60018;SDS011;45870;42.528;26.740;2023-04-08T04:09:11;24.63;;;15.15;;
60018;SDS011;45870;42.528;26.740;2023-04-08T04:11:36;22.35;;;14.85;;
60018;SDS011;45870;42.528;26.740;2023-04-08T04:14:02;23.83;;;14.02;;
60018;SDS011;45870;42.528;26.740;2023-04-08T04:16:28;19.38;;;12.52;;
60018;SDS011;45870;42.528;26.740;2023-04-08T04:18:54;19.02;;;13.15;;
60018;SDS011;45870;42.528;26.740;2023-04-08T04:21:19;19.70;;;13.60;;
60018;SDS011;45870;42.528;26.740;2023-04-08T04:23:45;21.65;;;14.07;;
60018;SDS011;45870;42.528;26.740;2023-04-08T04:26:11;20.85;;;13.30;;
60018;SDS011;45870;42.528;26.740;2023-04-08T04:28:37;21.60;;;13.65;;
60018;SDS011;45870;42.528;26.740;2023-04-08T04:31:03;20.45;;;13.43;;
60018;SDS011;45870;42.528;26.740;2023-04-08T04:33:29;21.98;;;13.77;;
60018;SDS011;45870;42.528;26.740;2023-04-08T04:35:55;20.60;;;14.10;;
60018;SDS011;45870;42.528;26.740;2023-04-08T04:38:21;23.67;;;14.32;;
60018;SDS011;45870;42.528;26.740;2023-04-08T04:40:47;21.08;;;13.52;;
60018;SDS011;45870;42.528;26.740;2023-04-08T04:43:12;19.42;;;13.18;;
60018;SDS011;45870;42.528;26.740;2023-04-08T04:45:38;18.92;;;12.63;;
60018;SDS011;45870;42.528;26.740;2023-04-08T04:48:04;18.85;;;12.60;;
60018;SDS011;45870;42.528;26.740;2023-04-08T04:50:30;18.30;;;12.85;;
60018;SDS011;45870;42.528;26.740;2023-04-08T04:52:55;19.77;;;12.98;;
60018;SDS011;45870;42.528;26.740;2023-04-08T04:55:21;18.88;;;13.32;;
60018;SDS011;45870;42.528;26.740;2023-04-08T04:57:47;18.92;;;13.07;;
60018;SDS011;45870;42.528;26.740;2023-04-08T05:00:16;18.67;;;13.00;;
60018;SDS011;45870;42.528;26.740;2023-04-08T05:02:42;19.17;;;12.43;;
60018;SDS011;45870;42.528;26.740;2023-04-08T05:05:07;18.63;;;12.82;;
60018;SDS011;45870;42.528;26.740;2023-04-08T05:07:36;20.17;;;12.90;;
60018;SDS011;45870;42.528;26.740;2023-04-08T05:10:03;18.92;;;12.68;;
60018;SDS011;45870;42.528;26.740;2023-04-08T05:12:30;20.88;;;13.52;;
60018;SDS011;45870;42.528;26.740;2023-04-08T05:14:56;24.25;;;12.93;;
60018;SDS011;45870;42.528;26.740;2023-04-08T05:17:23;18.73;;;13.27;;
60018;SDS011;45870;42.528;26.740;2023-04-08T05:19:49;21.45;;;13.48;;
60018;SDS011;45870;42.528;26.740;2023-04-08T05:22:17;20.35;;;13.10;;
60018;SDS011;45870;42.528;26.740;2023-04-08T05:24:43;21.00;;;13.93;;
60018;SDS011;45870;42.528;26.740;2023-04-08T05:27:08;19.38;;;13.20;;
60018;SDS011;45870;42.528;26.740;2023-04-08T05:29:34;20.98;;;12.85;;
60018;SDS011;45870;42.528;26.740;2023-04-08T05:32:00;22.33;;;13.70;;
60018;SDS011;45870;42.528;26.740;2023-04-08T05:34:25;20.10;;;13.05;;
60018;SDS011;45870;42.528;26.740;2023-04-08T05:36:51;19.33;;;13.10;;
60018;SDS011;45870;42.528;26.740;2023-04-08T05:39:17;20.33;;;13.43;;
60018;SDS011;45870;42.528;26.740;2023-04-08T05:41:43;18.10;;;12.95;;
60018;SDS011;45870;42.528;26.740;2023-04-08T05:44:10;21.48;;;13.13;;
60018;SDS011;45870;42.528;26.740;2023-04-08T05:46:39;21.85;;;13.57;;
60018;SDS011;45870;42.528;26.740;2023-04-08T05:49:04;21.60;;;13.98;;
60018;SDS011;45870;42.528;26.740;2023-04-08T05:51:30;19.58;;;13.13;;
60018;SDS011;45870;42.528;26.740;2023-04-08T05:53:56;18.20;;;12.65;;
60018;SDS011;45870;42.528;26.740;2023-04-08T05:56:21;19.88;;;12.68;;
60018;SDS011;45870;42.528;26.740;2023-04-08T05:58:47;19.70;;;12.93;;
60018;SDS011;45870;42.528;26.740;2023-04-08T06:01:13;18.67;;;12.40;;
60018;SDS011;45870;42.528;26.740;2023-04-08T06:03:38;17.42;;;11.70;;
60018;SDS011;45870;42.528;26.740;2023-04-08T06:06:10;18.40;;;11.52;;
60018;SDS011;45870;42.528;26.740;2023-04-08T06:08:36;15.70;;;9.77;;
60018;SDS011;45870;42.528;26.740;2023-04-08T06:11:02;13.65;;;9.30;;
60018;SDS011;45870;42.528;26.740;2023-04-08T06:13:30;15.75;;;9.88;;
60018;SDS011;45870;42.528;26.740;2023-04-08T06:15:56;12.75;;;9.13;;
60018;SDS011;45870;42.528;26.740;2023-04-08T06:18:22;14.88;;;9.40;;
60018;SDS011;45870;42.528;26.740;2023-04-08T06:20:48;20.35;;;10.05;;
60018;SDS011;45870;42.528;26.740;2023-04-08T06:23:13;15.05;;;9.65;;
60018;SDS011;45870;42.528;26.740;2023-04-08T06:25:39;14.18;;;8.73;;
60018;SDS011;45870;42.528;26.740;2023-04-08T06:28:06;10.65;;;8.27;;
60018;SDS011;45870;42.528;26.740;2023-04-08T06:30:31;14.93;;;8.55;;
60018;SDS011;45870;42.528;26.740;2023-04-08T06:32:57;12.48;;;8.82;;
60018;SDS011;45870;42.528;26.740;2023-04-08T06:35:23;12.23;;;8.02;;
60018;SDS011;45870;42.528;26.740;2023-04-08T06:37:48;12.93;;;7.85;;
60018;SDS011;45870;42.528;26.740;2023-04-08T06:40:14;10.80;;;7.60;;
60018;SDS011;45870;42.528;26.740;2023-04-08T06:42:40;13.25;;;8.57;;
60018;SDS011;45870;42.528;26.740;2023-04-08T06:45:08;13.70;;;7.97;;
60018;SDS011;45870;42.528;26.740;2023-04-08T06:47:35;13.10;;;7.40;;
60018;SDS011;45870;42.528;26.740;2023-04-08T06:50:01;13.63;;;9.20;;
60018;SDS011;45870;42.528;26.740;2023-04-08T06:52:26;12.90;;;9.38;;
60018;SDS011;45870;42.528;26.740;2023-04-08T06:54:52;14.20;;;9.32;;
60018;SDS011;45870;42.528;26.740;2023-04-08T06:57:18;13.27;;;9.13;;
60018;SDS011;45870;42.528;26.740;2023-04-08T06:59:43;15.63;;;10.60;;
60018;SDS011;45870;42.528;26.740;2023-04-08T07:02:09;15.15;;;9.52;;
60018;SDS011;45870;42.528;26.740;2023-04-08T07:04:35;12.27;;;8.95;;
60018;SDS011;45870;42.528;26.740;2023-04-08T07:07:00;15.15;;;9.55;;
60018;SDS011;45870;42.528;26.740;2023-04-08T07:09:26;11.48;;;7.72;;
60018;SDS011;45870;42.528;26.740;2023-04-08T07:11:52;14.52;;;8.50;;
60018;SDS011;45870;42.528;26.740;2023-04-08T07:14:18;15.23;;;9.32;;
60018;SDS011;45870;42.528;26.740;2023-04-08T07:16:44;13.50;;;9.13;;
60018;SDS011;45870;42.528;26.740;2023-04-08T07:19:10;14.38;;;9.48;;
60018;SDS011;45870;42.528;26.740;2023-04-08T07:21:35;13.55;;;8.85;;
60018;SDS011;45870;42.528;26.740;2023-04-08T07:24:01;14.27;;;9.70;;
60018;SDS011;45870;42.528;26.740;2023-04-08T07:26:27;12.23;;;8.70;;
60018;SDS011;45870;42.528;26.740;2023-04-08T07:28:52;16.17;;;9.98;;
60018;SDS011;45870;42.528;26.740;2023-04-08T07:31:18;13.80;;;9.93;;
60018;SDS011;45870;42.528;26.740;2023-04-08T07:33:44;12.32;;;8.50;;
60018;SDS011;45870;42.528;26.740;2023-04-08T07:36:10;15.93;;;9.18;;
60018;SDS011;45870;42.528;26.740;2023-04-08T07:38:37;11.75;;;7.95;;
60018;SDS011;45870;42.528;26.740;2023-04-08T07:41:04;11.05;;;7.85;;
60018;SDS011;45870;42.528;26.740;2023-04-08T07:43:31;11.18;;;7.53;;
60018;SDS011;45870;42.528;26.740;2023-04-08T07:46:01;15.02;;;8.00;;
60018;SDS011;45870;42.528;26.740;2023-04-08T07:48:29;10.40;;;7.60;;
60018;SDS011;45870;42.528;26.740;2023-04-08T07:50:55;11.05;;;7.18;;
60018;SDS011;45870;42.528;26.740;2023-04-08T07:53:21;11.57;;;7.18;;
60018;SDS011;45870;42.528;26.740;2023-04-08T07:55:49;11.65;;;7.38;;
60018;SDS011;45870;42.528;26.740;2023-04-08T07:58:14;11.70;;;7.60;;
60018;SDS011;45870;42.528;26.740;2023-04-08T08:00:40;12.30;;;8.07;;
60018;SDS011;45870;42.528;26.740;2023-04-08T08:03:06;11.77;;;7.82;;
60018;SDS011;45870;42.528;26.740;2023-04-08T08:05:32;9.30;;;7.13;;
60018;SDS011;45870;42.528;26.740;2023-04-08T08:07:57;10.40;;;6.97;;
60018;SDS011;45870;42.528;26.740;2023-04-08T08:10:23;13.63;;;8.27;;
60018;SDS011;45870;42.528;26.740;2023-04-08T08:12:49;12.80;;;8.02;;
60018;SDS011;45870;42.528;26.740;2023-04-08T08:15:14;10.23;;;7.85;;
60018;SDS011;45870;42.528;26.740;2023-04-08T08:17:41;9.60;;;7.30;;
60018;SDS011;45870;42.528;26.740;2023-04-08T08:20:06;9.88;;;7.25;;
60018;SDS011;45870;42.528;26.740;2023-04-08T08:22:32;11.70;;;8.07;;
60018;SDS011;45870;42.528;26.740;2023-04-08T08:24:58;10.15;;;7.25;;
60018;SDS011;45870;42.528;26.740;2023-04-08T08:27:24;11.43;;;7.93;;
60018;SDS011;45870;42.528;26.740;2023-04-08T08:29:50;10.00;;;7.88;;
60018;SDS011;45870;42.528;26.740;2023-04-08T08:32:17;10.15;;;7.50;;
60018;SDS011;45870;42.528;26.740;2023-04-08T08:34:43;11.30;;;7.57;;
60018;SDS011;45870;42.528;26.740;2023-04-08T08:37:08;10.30;;;6.63;;
60018;SDS011;45870;42.528;26.740;2023-04-08T08:39:34;11.68;;;7.40;;
60018;SDS011;45870;42.528;26.740;2023-04-08T08:42:00;8.88;;;6.93;;
60018;SDS011;45870;42.528;26.740;2023-04-08T08:44:26;10.63;;;7.57;;
60018;SDS011;45870;42.528;26.740;2023-04-08T08:46:52;9.77;;;6.88;;
60018;SDS011;45870;42.528;26.740;2023-04-08T08:49:18;9.10;;;6.55;;
60018;SDS011;45870;42.528;26.740;2023-04-08T08:51:47;11.43;;;7.25;;
60018;SDS011;45870;42.528;26.740;2023-04-08T08:54:14;10.13;;;7.28;;
60018;SDS011;45870;42.528;26.740;2023-04-08T08:56:40;10.07;;;7.03;;
60018;SDS011;45870;42.528;26.740;2023-04-08T08:59:08;8.65;;;6.45;;
60018;SDS011;45870;42.528;26.740;2023-04-08T09:01:37;8.65;;;6.10;;
60018;SDS011;45870;42.528;26.740;2023-04-08T09:06:42;9.00;;;5.47;;
60018;SDS011;45870;42.528;26.740;2023-04-08T09:09:09;8.95;;;5.32;;
60018;SDS011;45870;42.528;26.740;2023-04-08T09:11:36;32.38;;;17.70;;
60018;SDS011;45870;42.528;26.740;2023-04-08T09:14:03;7.97;;;4.85;;
60018;SDS011;45870;42.528;26.740;2023-04-08T09:16:31;7.13;;;5.40;;
60018;SDS011;45870;42.528;26.740;2023-04-08T09:19:07;9.38;;;5.47;;
60018;SDS011;45870;42.528;26.740;2023-04-08T09:21:35;7.60;;;4.93;;
60018;SDS011;45870;42.528;26.740;2023-04-08T09:24:01;36.10;;;15.48;;
60018;SDS011;45870;42.528;26.740;2023-04-08T09:26:27;31.15;;;13.52;;
60018;SDS011;45870;42.528;26.740;2023-04-08T09:29:01;7.45;;;5.22;;
60018;SDS011;45870;42.528;26.740;2023-04-08T09:31:34;6.43;;;5.10;;
60018;SDS011;45870;42.528;26.740;2023-04-08T09:34:12;6.73;;;5.20;;
60018;SDS011;45870;42.528;26.740;2023-04-08T09:36:39;6.63;;;4.75;;
60018;SDS011;45870;42.528;26.740;2023-04-08T09:39:05;102.03;;;38.15;;
60018;SDS011;45870;42.528;26.740;2023-04-08T09:41:35;9.75;;;5.18;;
60018;SDS011;45870;42.528;26.740;2023-04-08T09:44:06;8.63;;;5.38;;
60018;SDS011;45870;42.528;26.740;2023-04-08T09:46:44;6.13;;;5.00;;
60018;SDS011;45870;42.528;26.740;2023-04-08T09:49:28;12.32;;;6.13;;
60018;SDS011;45870;42.528;26.740;2023-04-08T10:00:14;6.88;;;4.90;;
60018;SDS011;45870;42.528;26.740;2023-04-08T10:02:44;17.23;;;7.68;;
60018;SDS011;45870;42.528;26.740;2023-04-08T10:05:13;9.60;;;5.55;;
60018;SDS011;45870;42.528;26.740;2023-04-08T10:07:41;64.03;;;23.58;;
60018;SDS011;45870;42.528;26.740;2023-04-08T10:10:07;7.20;;;4.80;;
60018;SDS011;45870;42.528;26.740;2023-04-08T10:12:36;8.80;;;5.65;;
60018;SDS011;45870;42.528;26.740;2023-04-08T10:17:52;5.32;;;4.55;;
60018;SDS011;45870;42.528;26.740;2023-04-08T10:23:01;6.68;;;4.65;;
60018;SDS011;45870;42.528;26.740;2023-04-08T10:25:35;6.45;;;4.60;;
60018;SDS011;45870;42.528;26.740;2023-04-08T10:28:22;5.88;;;3.97;;
60018;SDS011;45870;42.528;26.740;2023-04-08T10:30:49;5.60;;;4.32;;
60018;SDS011;45870;42.528;26.740;2023-04-08T10:35:59;6.68;;;4.35;;
60018;SDS011;45870;42.528;26.740;2023-04-08T10:38:34;7.63;;;4.38;;
60018;SDS011;45870;42.528;26.740;2023-04-08T10:40:59;5.80;;;4.88;;
60018;SDS011;45870;42.528;26.740;2023-04-08T10:43:27;5.78;;;4.18;;
60018;SDS011;45870;42.528;26.740;2023-04-08T10:45:57;6.03;;;4.88;;
60018;SDS011;45870;42.528;26.740;2023-04-08T10:48:23;6.30;;;4.82;;
60018;SDS011;45870;42.528;26.740;2023-04-08T10:50:57;7.30;;;4.82;;
60018;SDS011;45870;42.528;26.740;2023-04-08T10:53:28;6.30;;;4.93;;
60018;SDS011;45870;42.528;26.740;2023-04-08T10:56:02;6.95;;;5.00;;
60018;SDS011;45870;42.528;26.740;2023-04-08T10:58:29;8.15;;;5.38;;
60018;SDS011;45870;42.528;26.740;2023-04-08T11:00:55;6.20;;;4.95;;
60018;SDS011;45870;42.528;26.740;2023-04-08T11:03:27;11.05;;;6.57;;
60018;SDS011;45870;42.528;26.740;2023-04-08T11:05:52;5.38;;;4.50;;
60018;SDS011;45870;42.528;26.740;2023-04-08T11:08:26;6.80;;;5.15;;
60018;SDS011;45870;42.528;26.740;2023-04-08T11:10:59;6.25;;;4.80;;
60018;SDS011;45870;42.528;26.740;2023-04-08T11:13:26;5.65;;;4.57;;
60018;SDS011;45870;42.528;26.740;2023-04-08T11:15:53;7.18;;;5.60;;
60018;SDS011;45870;42.528;26.740;2023-04-08T11:18:21;6.80;;;4.95;;
60018;SDS011;45870;42.528;26.740;2023-04-08T11:20:51;10.23;;;5.82;;
60018;SDS011;45870;42.528;26.740;2023-04-08T11:23:17;6.72;;;5.38;;
60018;SDS011;45870;42.528;26.740;2023-04-08T11:25:44;6.90;;;4.80;;
60018;SDS011;45870;42.528;26.740;2023-04-08T11:28:11;9.30;;;5.85;;
60018;SDS011;45870;42.528;26.740;2023-04-08T11:30:39;6.32;;;4.57;;
60018;SDS011;45870;42.528;26.740;2023-04-08T11:33:06;14.82;;;7.45;;
60018;SDS011;45870;42.528;26.740;2023-04-08T11:35:32;5.50;;;4.32;;
60018;SDS011;45870;42.528;26.740;2023-04-08T11:37:58;5.30;;;4.53;;
60018;SDS011;45870;42.528;26.740;2023-04-08T11:40:24;7.80;;;5.18;;
60018;SDS011;45870;42.528;26.740;2023-04-08T11:42:50;7.00;;;5.20;;
60018;SDS011;45870;42.528;26.740;2023-04-08T11:45:18;8.60;;;4.90;;
60018;SDS011;45870;42.528;26.740;2023-04-08T11:47:48;7.00;;;4.40;;
60018;SDS011;45870;42.528;26.740;2023-04-08T11:50:23;7.63;;;5.50;;
60018;SDS011;45870;42.528;26.740;2023-04-08T11:52:50;6.88;;;5.07;;
60018;SDS011;45870;42.528;26.740;2023-04-08T11:55:26;13.38;;;6.90;;
60018;SDS011;45870;42.528;26.740;2023-04-08T11:57:55;7.85;;;5.40;;
60018;SDS011;45870;42.528;26.740;2023-04-08T12:00:27;6.82;;;5.20;;
60018;SDS011;45870;42.528;26.740;2023-04-08T12:02:54;8.52;;;6.05;;
60018;SDS011;45870;42.528;26.740;2023-04-08T12:05:19;16.15;;;7.13;;
60018;SDS011;45870;42.528;26.740;2023-04-08T12:07:45;6.10;;;4.85;;
60018;SDS011;45870;42.528;26.740;2023-04-08T12:10:12;7.95;;;5.13;;
60018;SDS011;45870;42.528;26.740;2023-04-08T12:12:38;5.75;;;4.57;;
60018;SDS011;45870;42.528;26.740;2023-04-08T12:15:04;19.92;;;8.80;;
60018;SDS011;45870;42.528;26.740;2023-04-08T12:17:32;13.70;;;7.22;;
60018;SDS011;45870;42.528;26.740;2023-04-08T12:19:58;6.85;;;4.88;;
60018;SDS011;45870;42.528;26.740;2023-04-08T12:22:23;6.70;;;5.03;;
60018;SDS011;45870;42.528;26.740;2023-04-08T12:24:49;7.20;;;4.88;;
60018;SDS011;45870;42.528;26.740;2023-04-08T12:27:15;5.78;;;4.82;;
60018;SDS011;45870;42.528;26.740;2023-04-08T12:29:41;6.65;;;4.80;;
60018;SDS011;45870;42.528;26.740;2023-04-08T12:32:07;6.03;;;4.68;;
60018;SDS011;45870;42.528;26.740;2023-04-08T12:34:33;7.35;;;5.75;;
60018;SDS011;45870;42.528;26.740;2023-04-08T12:36:59;6.15;;;4.63;;
60018;SDS011;45870;42.528;26.740;2023-04-08T12:39:24;8.02;;;4.80;;
60018;SDS011;45870;42.528;26.740;2023-04-08T12:41:50;6.22;;;4.95;;
60018;SDS011;45870;42.528;26.740;2023-04-08T12:44:16;7.75;;;5.38;;
60018;SDS011;45870;42.528;26.740;2023-04-08T12:46:41;6.13;;;4.40;;
60018;SDS011;45870;42.528;26.740;2023-04-08T12:49:07;7.13;;;4.80;;
60018;SDS011;45870;42.528;26.740;2023-04-08T12:51:33;6.75;;;4.68;;
60018;SDS011;45870;42.528;26.740;2023-04-08T12:54:00;6.10;;;4.45;;
60018;SDS011;45870;42.528;26.740;2023-04-08T12:56:29;6.63;;;4.78;;
60018;SDS011;45870;42.528;26.740;2023-04-08T12:58:56;6.22;;;4.72;;
60018;SDS011;45870;42.528;26.740;2023-04-08T13:01:23;5.57;;;4.22;;
60018;SDS011;45870;42.528;26.740;2023-04-08T13:03:49;7.25;;;4.55;;
60018;SDS011;45870;42.528;26.740;2023-04-08T13:06:14;7.88;;;5.18;;
60018;SDS011;45870;42.528;26.740;2023-04-08T13:08:40;5.85;;;4.43;;
60018;SDS011;45870;42.528;26.740;2023-04-08T13:11:06;6.45;;;4.18;;
60018;SDS011;45870;42.528;26.740;2023-04-08T13:13:32;10.13;;;5.30;;
60018;SDS011;45870;42.528;26.740;2023-04-08T13:15:59;8.77;;;5.80;;
60018;SDS011;45870;42.528;26.740;2023-04-08T13:18:26;7.50;;;5.15;;
60018;SDS011;45870;42.528;26.740;2023-04-08T13:20:52;9.13;;;4.63;;
60018;SDS011;45870;42.528;26.740;2023-04-08T13:23:18;7.80;;;5.07;;
60018;SDS011;45870;42.528;26.740;2023-04-08T13:25:45;9.05;;;4.97;;
60018;SDS011;45870;42.528;26.740;2023-04-08T13:28:11;8.95;;;4.45;;
60018;SDS011;45870;42.528;26.740;2023-04-08T13:30:36;6.72;;;4.97;;
60018;SDS011;45870;42.528;26.740;2023-04-08T13:33:02;6.15;;;4.55;;
60018;SDS011;45870;42.528;26.740;2023-04-08T13:35:28;8.00;;;4.18;;
60018;SDS011;45870;42.528;26.740;2023-04-08T13:37:54;8.05;;;5.47;;
60018;SDS011;45870;42.528;26.740;2023-04-08T13:40:20;8.68;;;4.75;;
60018;SDS011;45870;42.528;26.740;2023-04-08T13:42:46;7.15;;;5.07;;
60018;SDS011;45870;42.528;26.740;2023-04-08T13:45:12;7.00;;;4.63;;
60018;SDS011;45870;42.528;26.740;2023-04-08T13:47:38;7.40;;;5.05;;
60018;SDS011;45870;42.528;26.740;2023-04-08T13:50:05;7.00;;;4.68;;
60018;SDS011;45870;42.528;26.740;2023-04-08T13:52:31;6.57;;;4.38;;
60018;SDS011;45870;42.528;26.740;2023-04-08T13:54:57;6.82;;;4.90;;
60018;SDS011;45870;42.528;26.740;2023-04-08T13:57:23;6.93;;;4.32;;
60018;SDS011;45870;42.528;26.740;2023-04-08T13:59:48;6.65;;;4.32;;
60018;SDS011;45870;42.528;26.740;2023-04-08T14:02:14;8.80;;;4.25;;
60018;SDS011;45870;42.528;26.740;2023-04-08T14:04:39;5.85;;;3.75;;
60018;SDS011;45870;42.528;26.740;2023-04-08T14:07:05;7.03;;;3.75;;
60018;SDS011;45870;42.528;26.740;2023-04-08T14:09:31;8.27;;;4.63;;
60018;SDS011;45870;42.528;26.740;2023-04-08T14:11:57;7.40;;;4.20;;
60018;SDS011;45870;42.528;26.740;2023-04-08T14:14:23;6.75;;;3.42;;
60018;SDS011;45870;42.528;26.740;2023-04-08T14:16:49;4.70;;;3.15;;
60018;SDS011;45870;42.528;26.740;2023-04-08T14:19:14;6.32;;;4.07;;
60018;SDS011;45870;42.528;26.740;2023-04-08T14:21:40;4.82;;;3.38;;
60018;SDS011;45870;42.528;26.740;2023-04-08T14:24:06;5.22;;;3.35;;
60018;SDS011;45870;42.528;26.740;2023-04-08T14:26:32;4.20;;;3.22;;
60018;SDS011;45870;42.528;26.740;2023-04-08T14:29:01;8.32;;;3.60;;
60018;SDS011;45870;42.528;26.740;2023-04-08T14:31:27;6.25;;;3.63;;
60018;SDS011;45870;42.528;26.740;2023-04-08T14:33:53;7.25;;;3.20;;
60018;SDS011;45870;42.528;26.740;2023-04-08T14:36:19;6.60;;;3.10;;
60018;SDS011;45870;42.528;26.740;2023-04-08T14:38:45;6.13;;;3.05;;
60018;SDS011;45870;42.528;26.740;2023-04-08T14:41:14;4.78;;;3.40;;
60018;SDS011;45870;42.528;26.740;2023-04-08T14:43:40;4.55;;;3.22;;